Time;durP1;ratioP1;P1;durP2;ratioP2;P2;SDS_P1;SDS_P2;PMS_P1;PMS_P2;Temp;Humidity;BMP_temperature;BMP_pressure;BME280_temperature;BME280_humidity;BME280_pressure;Samples;Min_cycle;Max_cycle;Signal;HPM_P1;HPM_P2
2020/12/03 00:00:40;;;;;;;70.28;32.38;;;2.00;87.80;;;;;;5058775;28;20025;-81
2020/12/03 00:03:30;;;;;;;66.70;31.73;;;2.00;88.00;;;;;;5059836;28;20047;-82
2020/12/03 00:06:05;;;;;;;70.25;32.35;;;1.90;87.50;;;;;;5040970;28;20025;-80
2020/12/03 00:08:36;;;;;;;66.00;32.60;;;1.90;87.50;;;;;;5041087;28;20044;-82
2020/12/03 00:11:02;;;;;;;74.00;34.22;;;1.90;88.00;;;;;;5042827;28;20029;-82
2020/12/03 00:13:33;;;;;;;68.70;32.08;;;1.90;87.80;;;;;;5042575;28;20035;-81
2020/12/03 00:16:00;;;;;;;66.00;31.95;;;1.90;88.10;;;;;;5040927;28;20037;-81
2020/12/03 00:18:30;;;;;;;71.80;34.35;;;1.90;88.30;;;;;;5044163;28;20036;-81
2020/12/03 00:20:57;;;;;;;73.13;33.72;;;1.90;88.10;;;;;;5044127;28;20097;-81
2020/12/03 00:23:23;;;;;;;70.80;33.35;;;1.90;88.20;;;;;;5043940;28;20016;-82
2020/12/03 00:25:51;;;;;;;73.22;34.08;;;1.90;88.20;;;;;;5056072;28;20044;-80
2020/12/03 00:28:17;;;;;;;74.30;33.88;;;1.90;88.40;;;;;;5057414;28;20403;-81
2020/12/03 00:30:47;;;;;;;67.82;31.27;;;1.90;88.30;;;;;;5056365;28;20159;-81
2020/12/03 00:33:17;;;;;;;72.25;34.42;;;1.90;88.60;;;;;;5058198;28;20583;-81
2020/12/03 00:35:50;;;;;;;72.73;34.80;;;1.90;88.30;;;;;;5040663;28;20045;-81
2020/12/03 00:38:18;;;;;;;71.53;32.72;;;1.80;88.60;;;;;;5058498;28;20037;-82
2020/12/03 00:40:45;;;;;;;69.55;33.38;;;1.80;88.90;;;;;;5040685;28;20028;-82
2020/12/03 00:43:10;;;;;;;75.15;35.10;;;1.80;89.10;;;;;;5041041;28;20021;-80
2020/12/03 00:45:36;;;;;;;73.68;33.67;;;1.80;88.90;;;;;;5043516;28;20036;-83
2020/12/03 00:48:02;;;;;;;69.95;33.88;;;1.80;88.90;;;;;;5041822;28;20060;-82
2020/12/03 00:50:28;;;;;;;71.25;31.88;;;1.80;88.90;;;;;;5040555;28;20423;-83
2020/12/03 00:52:54;;;;;;;65.70;31.50;;;1.80;88.70;;;;;;5042051;28;20029;-83
2020/12/03 00:55:19;;;;;;;70.13;33.90;;;1.90;89.00;;;;;;5044451;28;20021;-81
2020/12/03 00:57:45;;;;;;;72.32;32.25;;;1.80;88.90;;;;;;5048516;28;20040;-78
2020/12/03 01:00:14;;;;;;;72.32;33.30;;;1.80;88.90;;;;;;5046356;28;20448;-78
2020/12/03 01:02:40;;;;;;;76.65;33.38;;;1.80;88.70;;;;;;5041734;28;20204;-80
2020/12/03 01:05:07;;;;;;;72.13;31.95;;;1.90;88.60;;;;;;5068547;28;20061;-82
2020/12/03 01:07:33;;;;;;;71.50;31.63;;;1.90;88.80;;;;;;5044567;28;20033;-83
2020/12/03 01:09:59;;;;;;;71.45;32.75;;;1.90;89.00;;;;;;5043100;28;20086;-82
2020/12/03 01:12:25;;;;;;;67.82;33.35;;;1.80;89.40;;;;;;5053054;28;20032;-80
2020/12/03 01:14:51;;;;;;;69.90;32.40;;;1.80;89.30;;;;;;5057140;28;20614;-83
2020/12/03 01:19:52;;;;;;;67.93;32.38;;;1.90;89.10;;;;;;5478515;22;20046;-82
2020/12/03 01:22:18;;;;;;;73.07;34.92;;;1.90;89.20;;;;;;5026237;28;20141;-82
2020/12/03 01:24:43;;;;;;;68.35;33.28;;;1.80;89.20;;;;;;5032223;28;20056;-82
2020/12/03 01:27:11;;;;;;;69.60;33.05;;;1.90;89.40;;;;;;5017393;28;20477;-81
2020/12/03 01:29:37;;;;;;;70.28;33.03;;;1.80;89.30;;;;;;5018009;28;20044;-84
2020/12/03 01:32:03;;;;;;;76.00;33.20;;;1.80;89.20;;;;;;5024989;28;20460;-81
2020/12/03 01:34:29;;;;;;;68.97;32.75;;;1.90;89.30;;;;;;5043535;23;20497;-73
2020/12/03 01:36:54;;;;;;;68.10;32.47;;;1.90;89.30;;;;;;5021749;28;20083;-73
2020/12/03 01:39:21;;;;;;;72.93;33.63;;;1.90;89.30;;;;;;5054447;28;20021;-74
2020/12/03 01:41:47;;;;;;;69.85;31.40;;;1.90;89.60;;;;;;5038719;28;20500;-74
2020/12/03 01:44:14;;;;;;;73.32;33.08;;;1.90;88.90;;;;;;5046477;28;20025;-74
2020/12/03 01:46:40;;;;;;;70.20;33.13;;;2.00;88.70;;;;;;5017625;28;20057;-74
2020/12/03 01:49:33;;;;;;;74.43;33.42;;;2.00;88.40;;;;;;5053493;28;20028;-74
2020/12/03 01:51:59;;;;;;;72.30;32.63;;;2.00;88.50;;;;;;5022184;28;20116;-74
2020/12/03 01:54:25;;;;;;;66.88;30.92;;;2.00;88.30;;;;;;5035583;28;20029;-74
2020/12/03 01:57:03;;;;;;;77.30;33.95;;;2.00;88.40;;;;;;5036778;28;20033;-74
2020/12/03 01:59:47;;;;;;;64.68;31.33;;;2.00;88.60;;;;;;5033819;28;20037;-74
2020/12/03 02:02:15;;;;;;;66.05;32.33;;;2.00;88.60;;;;;;5018195;28;20396;-74
2020/12/03 02:04:41;;;;;;;73.05;33.15;;;2.00;88.60;;;;;;5034994;28;20029;-74
2020/12/03 02:07:13;;;;;;;69.50;33.65;;;1.90;88.70;;;;;;5042329;28;20021;-74
2020/12/03 02:09:39;;;;;;;68.57;32.25;;;1.90;88.70;;;;;;5053827;28;20029;-74
2020/12/03 02:12:05;;;;;;;69.13;32.97;;;2.00;88.80;;;;;;5037229;28;20033;-74
2020/12/03 02:14:31;;;;;;;75.18;33.90;;;1.90;88.50;;;;;;5041931;28;20120;-74
2020/12/03 02:16:57;;;;;;;75.80;34.67;;;1.90;88.70;;;;;;5034899;28;20122;-73
2020/12/03 02:19:26;;;;;;;69.35;31.42;;;1.90;88.60;;;;;;5044454;28;20038;-74
2020/12/03 02:21:59;;;;;;;69.75;32.08;;;1.90;88.50;;;;;;5037514;28;20026;-74
2020/12/03 02:24:35;;;;;;;68.40;31.33;;;1.90;88.60;;;;;;5034070;28;20175;-74
2020/12/03 02:27:01;;;;;;;66.07;31.40;;;1.90;89.20;;;;;;5042936;28;20029;-74
2020/12/03 02:29:28;;;;;;;65.75;31.75;;;1.90;88.80;;;;;;5039133;28;20168;-74
2020/12/03 02:31:54;;;;;;;70.85;32.55;;;1.90;88.40;;;;;;5038632;28;20082;-74
2020/12/03 02:34:20;;;;;;;64.88;31.60;;;1.90;88.30;;;;;;5020322;28;20509;-74
2020/12/03 02:36:54;;;;;;;73.80;31.83;;;1.90;88.50;;;;;;5034951;28;20370;-73
2020/12/03 02:39:20;;;;;;;65.00;30.73;;;1.90;88.50;;;;;;5023336;28;20075;-74
2020/12/03 02:41:46;;;;;;;68.45;32.38;;;1.90;88.70;;;;;;5023977;28;20032;-74
2020/12/03 02:44:13;;;;;;;73.10;32.63;;;1.90;88.70;;;;;;5036378;28;20021;-74
2020/12/03 02:46:39;;;;;;;70.53;32.05;;;1.90;88.70;;;;;;5039643;28;20056;-74
2020/12/03 02:49:05;;;;;;;65.95;30.70;;;1.90;88.50;;;;;;5032771;28;20127;-75
2020/12/03 02:51:31;;;;;;;71.32;31.90;;;1.90;88.60;;;;;;5020578;28;20120;-73
2020/12/03 02:53:56;;;;;;;70.53;32.83;;;1.90;88.30;;;;;;5034058;28;20036;-74
2020/12/03 02:56:22;;;;;;;66.57;31.15;;;1.90;88.50;;;;;;4997247;28;20026;-74
2020/12/03 02:58:48;;;;;;;65.70;32.13;;;1.90;89.10;;;;;;5027031;28;20048;-74
2020/12/03 03:01:13;;;;;;;68.38;32.03;;;1.90;88.50;;;;;;5021360;28;20083;-74
2020/12/03 03:03:39;;;;;;;65.45;30.75;;;1.90;88.60;;;;;;5048266;28;20477;-74
2020/12/03 03:06:05;;;;;;;62.35;30.25;;;1.90;88.00;;;;;;5042939;28;20463;-74
2020/12/03 03:08:30;;;;;;;62.88;30.13;;;1.90;88.40;;;;;;5017203;28;20622;-74
2020/12/03 03:10:56;;;;;;;65.47;30.75;;;1.90;88.40;;;;;;5035081;28;20029;-74
2020/12/03 03:13:22;;;;;;;68.00;30.58;;;1.90;88.70;;;;;;5032510;28;20025;-74
2020/12/03 03:15:47;;;;;;;65.57;30.55;;;1.90;88.60;;;;;;5012427;28;20432;-75
2020/12/03 03:18:13;;;;;;;67.30;31.15;;;1.90;88.80;;;;;;5020611;28;20044;-74
2020/12/03 03:20:39;;;;;;;70.18;30.55;;;1.90;88.80;;;;;;5042775;28;20032;-75
2020/12/03 03:23:05;;;;;;;65.18;29.77;;;1.90;88.60;;;;;;5025865;28;20416;-73
2020/12/03 03:25:30;;;;;;;68.07;30.85;;;2.00;88.60;;;;;;5044404;28;20388;-74
2020/12/03 03:27:56;;;;;;;71.30;32.30;;;2.00;88.10;;;;;;5033040;28;20049;-75
2020/12/03 03:30:22;;;;;;;58.00;29.23;;;2.00;88.40;;;;;;5015793;28;20018;-75
2020/12/03 03:32:47;;;;;;;69.65;33.13;;;2.00;88.60;;;;;;5040100;28;20025;-75
2020/12/03 03:35:17;;;;;;;60.53;30.20;;;2.00;88.60;;;;;;5047095;28;20721;-74
2020/12/03 03:37:42;;;;;;;62.75;30.25;;;1.90;88.80;;;;;;5020224;28;20408;-75
2020/12/03 03:40:08;;;;;;;68.15;32.53;;;1.90;88.90;;;;;;5032248;28;20025;-75
2020/12/03 03:42:34;;;;;;;71.78;34.60;;;1.90;88.60;;;;;;5008500;28;20079;-75
2020/12/03 03:45:00;;;;;;;63.25;30.52;;;1.90;88.50;;;;;;5032548;28;20095;-75
2020/12/03 03:47:25;;;;;;;68.60;32.60;;;1.90;88.60;;;;;;5026079;28;20095;-75
2020/12/03 03:49:51;;;;;;;68.28;30.52;;;1.90;88.80;;;;;;5015386;28;20112;-75
2020/12/03 03:52:17;;;;;;;71.18;31.60;;;1.90;88.50;;;;;;5035077;28;20140;-75
2020/12/03 03:54:43;;;;;;;63.70;29.92;;;1.90;88.50;;;;;;5033472;28;20034;-74
2020/12/03 03:57:09;;;;;;;65.28;30.27;;;1.90;88.20;;;;;;5014983;28;20607;-75
2020/12/03 03:59:35;;;;;;;64.90;29.83;;;1.90;88.40;;;;;;5033183;28;20040;-75
2020/12/03 04:02:00;;;;;;;68.85;30.70;;;1.90;88.30;;;;;;5018727;28;20044;-75
2020/12/03 04:04:26;;;;;;;62.25;28.98;;;1.90;88.30;;;;;;5033307;28;20488;-75
2020/12/03 04:06:51;;;;;;;66.05;31.90;;;1.90;88.20;;;;;;5035441;28;20029;-75
2020/12/03 04:09:17;;;;;;;65.68;31.17;;;1.90;88.00;;;;;;5038973;28;20024;-74
2020/12/03 04:11:44;;;;;;;67.55;31.48;;;1.80;88.20;;;;;;5012638;28;20033;-74
2020/12/03 04:14:10;;;;;;;65.22;31.23;;;1.80;88.10;;;;;;4999095;28;20029;-74
2020/12/03 04:16:35;;;;;;;65.05;30.42;;;1.80;87.90;;;;;;5035527;28;20040;-74
2020/12/03 04:19:03;;;;;;;62.75;30.13;;;1.80;87.80;;;;;;5002367;28;20030;-74
2020/12/03 04:21:31;;;;;;;74.72;32.17;;;1.80;88.10;;;;;;5031784;28;20075;-74
2020/12/03 04:23:57;;;;;;;68.03;32.13;;;1.80;88.10;;;;;;5014730;28;20018;-75
2020/12/03 04:26:23;;;;;;;65.72;29.45;;;1.80;88.00;;;;;;5011828;28;20041;-75
2020/12/03 04:28:48;;;;;;;67.82;32.42;;;1.80;88.30;;;;;;5019840;28;20025;-75
2020/12/03 04:31:14;;;;;;;64.88;30.50;;;1.80;88.30;;;;;;5033249;28;20037;-75
2020/12/03 04:33:39;;;;;;;67.82;31.23;;;1.80;88.50;;;;;;5032028;28;20088;-75
2020/12/03 04:36:05;;;;;;;65.93;29.92;;;1.70;88.10;;;;;;5015048;28;20030;-74
2020/12/03 04:38:31;;;;;;;68.22;31.20;;;1.80;88.50;;;;;;5031529;28;20034;-75
2020/12/03 04:40:58;;;;;;;58.85;29.42;;;1.80;88.50;;;;;;5013707;28;20034;-74
2020/12/03 04:43:40;;;;;;;65.05;30.05;;;1.80;88.20;;;;;;5023674;28;20077;-75
2020/12/03 04:46:30;;;;;;;69.68;31.83;;;1.70;88.50;;;;;;5032182;28;20094;-74
2020/12/03 04:49:39;;;;;;;70.18;30.85;;;1.80;88.60;;;;;;5031694;28;20418;-74
2020/12/03 04:52:34;;;;;;;66.93;30.27;;;1.70;88.50;;;;;;5021062;28;20098;-75
2020/12/03 04:55:25;;;;;;;66.75;30.67;;;1.70;88.40;;;;;;5013713;28;20108;-75
2020/12/03 04:58:16;;;;;;;64.82;30.02;;;1.70;88.40;;;;;;5026644;28;20036;-75
2020/12/03 05:00:55;;;;;;;67.75;30.98;;;1.70;88.60;;;;;;4996800;28;20033;-75
2020/12/03 05:03:46;;;;;;;66.20;29.98;;;1.70;88.50;;;;;;5034874;28;20365;-74
2020/12/03 05:06:26;;;;;;;64.60;29.45;;;1.70;88.20;;;;;;5046835;28;20121;-74
2020/12/03 05:09:11;;;;;;;65.50;30.77;;;1.70;88.40;;;;;;5002206;28;20028;-75
2020/12/03 05:11:41;;;;;;;66.20;30.73;;;1.60;88.50;;;;;;5017503;28;20499;-75
2020/12/03 05:14:56;;;;;;;63.85;30.88;;;1.70;88.70;;;;;;5034689;28;20120;-74
2020/12/03 05:17:58;;;;;;;66.88;30.63;;;1.60;88.70;;;;;;5017867;28;20396;-75
2020/12/03 05:20:44;;;;;;;70.95;30.33;;;1.60;88.80;;;;;;5027324;28;20125;-74
2020/12/03 05:23:30;;;;;;;65.65;30.17;;;1.60;88.80;;;;;;5030707;28;20506;-74
2020/12/03 05:25:57;;;;;;;69.47;30.00;;;1.60;88.90;;;;;;5013017;28;20082;-74
2020/12/03 05:28:36;;;;;;;66.65;30.33;;;1.60;88.80;;;;;;5013024;28;20111;-74
2020/12/03 05:31:25;;;;;;;65.60;31.65;;;1.60;88.90;;;;;;5010592;28;20040;-74
2020/12/03 05:33:51;;;;;;;69.38;31.40;;;1.60;88.90;;;;;;5025801;28;20037;-74
2020/12/03 05:36:29;;;;;;;65.97;30.70;;;1.60;88.90;;;;;;5019639;28;20066;-74
2020/12/03 05:38:56;;;;;;;65.03;29.80;;;1.60;89.00;;;;;;5017702;28;20412;-74
2020/12/03 05:41:24;;;;;;;66.90;30.45;;;1.60;89.50;;;;;;5011828;28;20021;-75
2020/12/03 05:43:50;;;;;;;65.25;30.10;;;1.60;88.80;;;;;;5029876;28;20025;-74
2020/12/03 05:46:19;;;;;;;64.47;29.13;;;1.60;88.90;;;;;;5028388;28;20018;-74
2020/12/03 05:49:02;;;;;;;60.17;27.77;;;1.60;88.60;;;;;;5036727;28;20040;-74
2020/12/03 05:51:31;;;;;;;68.85;30.98;;;1.60;88.70;;;;;;4999764;28;20021;-75
2020/12/03 05:54:04;;;;;;;60.47;28.75;;;1.60;88.80;;;;;;5015407;28;20029;-75
2020/12/03 05:56:31;;;;;;;69.22;30.02;;;1.60;89.30;;;;;;5015982;28;20034;-74
2020/12/03 05:59:12;;;;;;;66.95;29.88;;;1.60;89.10;;;;;;5030598;28;20396;-74
2020/12/03 06:01:47;;;;;;;63.40;28.95;;;1.60;89.30;;;;;;5033570;28;20053;-75
2020/12/03 06:04:35;;;;;;;68.45;30.98;;;1.60;89.50;;;;;;5039094;28;20083;-74
2020/12/03 06:07:12;;;;;;;65.07;30.73;;;1.60;90.00;;;;;;5025332;28;20028;-75
2020/12/03 06:10:10;;;;;;;66.13;30.52;;;1.60;89.50;;;;;;5029606;28;20800;-75
2020/12/03 06:13:05;;;;;;;65.38;29.45;;;1.60;89.60;;;;;;5030932;28;20018;-73
2020/12/03 06:15:42;;;;;;;62.90;29.42;;;1.60;89.60;;;;;;4995181;28;20040;-73
2020/12/03 06:18:46;;;;;;;65.35;30.30;;;1.60;89.70;;;;;;5017017;28;20084;-74
2020/12/03 06:21:18;;;;;;;65.95;29.05;;;1.60;89.70;;;;;;5002522;28;20115;-73
2020/12/03 06:23:43;;;;;;;71.72;31.23;;;1.60;89.90;;;;;;5033149;28;20019;-72
2020/12/03 06:26:28;;;;;;;70.57;31.17;;;1.60;90.10;;;;;;5032093;28;20109;-74
2020/12/03 06:28:57;;;;;;;66.60;31.50;;;1.50;90.30;;;;;;5008412;28;20037;-74
2020/12/03 06:31:37;;;;;;;74.28;32.45;;;1.50;90.40;;;;;;5027605;28;20026;-73
2020/12/03 06:34:41;;;;;;;70.07;30.05;;;1.50;90.40;;;;;;5015845;28;20124;-75
2020/12/03 06:37:25;;;;;;;69.20;30.90;;;1.50;90.50;;;;;;5035629;28;20025;-74
2020/12/03 06:40:01;;;;;;;66.45;31.13;;;1.50;90.50;;;;;;5031429;28;20037;-73
2020/12/03 06:42:38;;;;;;;70.50;32.05;;;1.50;90.40;;;;;;5034073;28;20025;-72
2020/12/03 06:45:31;;;;;;;70.45;30.88;;;1.50;90.50;;;;;;5038502;28;20436;-73
2020/12/03 06:48:17;;;;;;;72.93;31.77;;;1.50;90.60;;;;;;5026594;28;20029;-73
2020/12/03 06:50:49;;;;;;;66.63;30.77;;;1.50;90.50;;;;;;5008793;28;20079;-73
2020/12/03 06:53:29;;;;;;;70.55;30.50;;;1.50;90.50;;;;;;5040102;28;20029;-72
2020/12/03 06:56:21;;;;;;;65.95;29.88;;;1.50;90.60;;;;;;5008009;28;20025;-73
2020/12/03 06:59:22;;;;;;;73.90;32.42;;;1.50;90.60;;;;;;5041799;28;20033;-74
2020/12/03 07:02:14;;;;;;;68.57;29.48;;;1.60;90.60;;;;;;5039823;28;20033;-74
2020/12/03 07:04:39;;;;;;;;;;;1.50;90.60;;;;;;5037076;28;20095;-74
2020/12/03 07:07:42;;;;;;;65.70;29.23;;;1.50;90.60;;;;;;5036661;28;19991;-75
2020/12/03 07:10:23;;;;;;;73.20;30.58;;;1.50;90.70;;;;;;5015954;28;20060;-72
2020/12/03 07:13:23;;;;;;;69.53;31.10;;;1.50;90.70;;;;;;4996233;28;20017;-74
2020/12/03 07:16:19;;;;;;;66.07;30.00;;;1.50;90.80;;;;;;5014009;28;20037;-74
2020/12/03 07:19:14;;;;;;;65.95;29.35;;;1.50;90.80;;;;;;5043730;28;20029;-73
2020/12/03 07:22:13;;;;;;;67.95;30.15;;;1.50;90.60;;;;;;5002189;28;20037;-74
2020/12/03 07:24:42;;;;;;;66.43;30.42;;;1.50;90.50;;;;;;5015900;28;20388;-74
2020/12/03 07:27:13;;;;;;;69.65;29.98;;;1.50;90.60;;;;;;5020565;28;20311;-74
2020/12/03 07:30:09;;;;;;;65.55;28.98;;;1.50;90.70;;;;;;5005591;28;20091;-74
2020/12/03 07:32:41;;;;;;;68.03;30.02;;;1.50;90.60;;;;;;5003055;28;20148;-73
2020/12/03 07:35:33;;;;;;;73.10;31.25;;;1.50;90.70;;;;;;5041586;28;20040;-73
2020/12/03 07:38:32;;;;;;;68.05;30.45;;;1.50;90.60;;;;;;5005273;28;20397;-74
2020/12/03 07:40:59;;;;;;;68.43;30.65;;;1.50;90.60;;;;;;5043220;28;20063;-73
2020/12/03 07:43:35;;;;;;;71.28;31.15;;;1.50;90.70;;;;;;5018681;28;20520;-74
2020/12/03 07:46:02;;;;;;;67.22;30.55;;;1.50;90.70;;;;;;5031131;28;20033;-74
2020/12/03 07:48:31;;;;;;;70.80;30.63;;;1.50;90.70;;;;;;5027961;28;20026;-74
2020/12/03 07:51:03;;;;;;;72.97;30.10;;;1.50;90.60;;;;;;5042215;28;20028;-74
2020/12/03 07:53:30;;;;;;;70.30;31.55;;;1.50;90.60;;;;;;5014851;28;20033;-74
2020/12/03 07:55:56;;;;;;;66.03;29.23;;;1.60;90.80;;;;;;5033799;28;20025;-74
2020/12/03 07:58:39;;;;;;;63.97;29.17;;;1.60;90.80;;;;;;5020125;28;20600;-74
2020/12/03 08:01:30;;;;;;;65.88;30.75;;;1.50;90.70;;;;;;5043097;28;20029;-74
2020/12/03 08:04:08;;;;;;;70.60;30.80;;;1.60;90.70;;;;;;5040748;28;20021;-74
2020/12/03 08:06:38;;;;;;;68.47;30.33;;;1.60;90.70;;;;;;5034059;28;20453;-76
2020/12/03 08:09:04;;;;;;;62.40;28.95;;;1.60;90.70;;;;;;5000936;28;20048;-76
2020/12/03 08:11:44;;;;;;;65.28;30.88;;;1.60;90.60;;;;;;5035968;28;20473;-75
2020/12/03 08:14:33;;;;;;;64.70;28.35;;;1.60;90.50;;;;;;4999328;28;20101;-76
2020/12/03 08:17:00;;;;;;;66.75;28.42;;;1.60;90.60;;;;;;5042989;28;20432;-76
2020/12/03 08:19:36;;;;;;;67.43;30.80;;;1.60;90.60;;;;;;5041830;28;20470;-76
2020/12/03 08:22:29;;;;;;;66.05;29.10;;;1.60;90.70;;;;;;5036958;28;20025;-75
2020/12/03 08:25:13;;;;;;;66.32;28.85;;;1.60;90.60;;;;;;5028511;28;20034;-75
2020/12/03 08:27:40;;;;;;;65.15;29.40;;;1.60;90.60;;;;;;4994584;28;20026;-76
2020/12/03 08:30:50;;;;;;;62.33;27.88;;;1.60;90.50;;;;;;5004375;28;20388;-74
2020/12/03 08:33:18;;;;;;;66.50;28.70;;;1.60;90.60;;;;;;5027900;28;20079;-75
2020/12/03 08:36:05;;;;;;;64.57;29.33;;;1.60;90.60;;;;;;5036184;28;20020;-75
2020/12/03 08:38:41;;;;;;;63.55;28.92;;;1.60;90.50;;;;;;5022657;28;20108;-75
2020/12/03 08:41:12;;;;;;;66.35;29.85;;;1.70;90.50;;;;;;5032592;28;20029;-76
2020/12/03 08:43:43;;;;;;;64.20;28.38;;;1.60;90.50;;;;;;5017562;28;20079;-76
2020/12/03 08:46:23;;;;;;;68.80;29.88;;;1.60;90.50;;;;;;5032075;28;20033;-76
2020/12/03 08:48:49;;;;;;;65.90;28.55;;;1.60;90.50;;;;;;5010827;28;20026;-76
2020/12/03 08:51:17;;;;;;;59.78;28.38;;;1.90;91.70;;;;;;5029695;28;20095;-76
2020/12/03 08:53:49;;;;;;;64.70;30.85;;;1.90;90.00;;;;;;5034357;28;20053;-76
2020/12/03 08:56:20;;;;;;;62.97;29.27;;;1.90;89.90;;;;;;5038079;28;20041;-76
2020/12/03 08:58:53;;;;;;;60.78;29.17;;;1.90;90.10;;;;;;5024532;28;20033;-75
2020/12/03 09:01:24;;;;;;;66.47;30.30;;;1.80;90.00;;;;;;5022736;28;20037;-79
2020/12/03 09:03:51;;;;;;;59.67;28.70;;;1.80;90.20;;;;;;5035181;28;20548;-79
2020/12/03 09:06:17;;;;;;;59.78;27.00;;;1.80;90.10;;;;;;5013724;28;20119;-81
2020/12/03 09:08:42;;;;;;;61.22;29.25;;;1.70;90.20;;;;;;5046411;28;20118;-81
2020/12/03 09:11:09;;;;;;;65.45;29.25;;;1.70;90.20;;;;;;5007006;28;20025;-80
2020/12/03 09:13:35;;;;;;;62.90;28.45;;;1.70;90.10;;;;;;5035126;28;20040;-81
2020/12/03 09:16:01;;;;;;;62.22;29.45;;;1.70;90.10;;;;;;5024411;28;20036;-80
2020/12/03 09:18:27;;;;;;;60.90;28.00;;;1.70;90.20;;;;;;5003769;28;20021;-82
2020/12/03 09:20:53;;;;;;;67.25;30.30;;;1.70;90.20;;;;;;5040688;28;20029;-80
2020/12/03 09:23:23;;;;;;;61.47;28.50;;;1.80;90.10;;;;;;5036737;28;20033;-80
2020/12/03 09:25:50;;;;;;;61.50;28.30;;;1.80;90.10;;;;;;5026733;28;20048;-81
2020/12/03 09:28:18;;;;;;;58.13;27.23;;;1.80;90.10;;;;;;5045221;28;20025;-80
2020/12/03 09:30:46;;;;;;;62.05;29.08;;;1.80;90.00;;;;;;5047943;28;20021;-81
2020/12/03 09:33:20;;;;;;;60.15;28.17;;;1.80;90.00;;;;;;5047381;28;20678;-80
2020/12/03 09:35:48;;;;;;;58.97;27.60;;;1.80;90.00;;;;;;5040337;28;20103;-79
2020/12/03 09:38:20;;;;;;;63.92;29.55;;;1.70;90.00;;;;;;5002964;28;20443;-82
2020/12/03 09:40:47;;;;;;;62.88;28.95;;;1.70;90.00;;;;;;5026304;28;20103;-78
2020/12/03 09:43:23;;;;;;;58.92;27.48;;;1.70;90.10;;;;;;5054688;28;20028;-79
2020/12/03 09:45:58;;;;;;;61.83;27.27;;;1.80;90.10;;;;;;5047226;28;20032;-80
2020/12/03 09:48:25;;;;;;;60.85;28.85;;;1.80;90.10;;;;;;5013737;28;20017;-80
2020/12/03 09:50:52;;;;;;;68.38;30.27;;;1.80;90.10;;;;;;5044742;28;20029;-80
2020/12/03 09:53:20;;;;;;;66.10;29.13;;;1.80;90.10;;;;;;5007718;28;20144;-75
2020/12/03 09:55:47;;;;;;;60.25;28.10;;;1.80;90.20;;;;;;5013342;28;20055;-75
2020/12/03 09:58:18;;;;;;;66.53;29.13;;;1.80;90.10;;;;;;5037294;28;20493;-74
2020/12/03 10:00:45;;;;;;;;;;;1.80;90.20;;;;;;5037917;28;20115;-74
2020/12/03 10:04:01;;;;;;;63.65;27.85;;;1.80;90.10;;;;;;5023208;28;19936;-74
2020/12/03 10:07:10;;;;;;;63.03;27.85;;;1.80;90.20;;;;;;5040167;28;20091;-75
2020/12/03 10:10:13;;;;;;;69.60;28.35;;;1.80;90.30;;;;;;4991043;28;20546;-74
2020/12/03 10:12:45;;;;;;;71.57;29.50;;;1.70;90.20;;;;;;5040973;28;20032;-75
2020/12/03 10:15:16;;;;;;;67.30;28.23;;;1.70;90.20;;;;;;5011141;28;20075;-74
2020/12/03 10:17:51;;;;;;;66.35;29.83;;;1.80;90.20;;;;;;5036656;28;20017;-74
2020/12/03 10:20:18;;;;;;;63.22;28.90;;;1.80;90.20;;;;;;5040835;28;20029;-75
2020/12/03 10:23:04;;;;;;;66.07;28.13;;;1.90;90.20;;;;;;5038946;28;20045;-75
2020/12/03 10:25:33;;;;;;;60.75;27.80;;;1.90;90.10;;;;;;5036274;28;20116;-74
2020/12/03 10:28:21;;;;;;;60.78;27.67;;;1.90;90.10;;;;;;5035139;28;20060;-75
2020/12/03 10:30:47;;;;;;;62.67;27.90;;;1.90;90.10;;;;;;5007481;28;20655;-74
2020/12/03 10:33:15;;;;;;;58.15;26.65;;;1.90;89.90;;;;;;5009097;28;20469;-74
2020/12/03 10:35:47;;;;;;;61.20;28.27;;;1.90;90.10;;;;;;5005987;28;20029;-76
2020/12/03 10:38:23;;;;;;;59.97;28.30;;;1.90;90.10;;;;;;5038606;28;20032;-76
2020/12/03 10:40:56;;;;;;;59.13;26.08;;;2.00;90.00;;;;;;5041221;28;20032;-75
2020/12/03 10:43:30;;;;;;;58.17;25.77;;;1.90;90.10;;;;;;5029820;28;20098;-76
2020/12/03 10:46:01;;;;;;;57.22;27.30;;;2.00;90.20;;;;;;5024616;28;20025;-77
2020/12/03 10:48:48;;;;;;;60.90;27.73;;;2.00;90.10;;;;;;5035042;28;20026;-76
2020/12/03 10:51:17;;;;;;;57.00;26.42;;;2.00;90.10;;;;;;5044984;28;20051;-75
2020/12/03 10:53:46;;;;;;;60.13;25.58;;;2.00;90.20;;;;;;5040989;28;20030;-78
2020/12/03 10:56:15;;;;;;;55.67;26.60;;;2.10;90.10;;;;;;5046208;28;20365;-77
2020/12/03 10:59:58;;;;;;;60.75;26.65;;;2.10;90.00;;;;;;5026569;28;20029;-79
2020/12/03 11:02:44;;;;;;;54.40;25.13;;;2.10;90.00;;;;;;5006084;28;20511;-78
2020/12/03 11:05:12;;;;;;;57.47;25.85;;;2.10;90.00;;;;;;5023867;28;20037;-77
2020/12/03 11:07:39;;;;;;;58.67;25.38;;;2.10;90.00;;;;;;5042871;28;20017;-76
2020/12/03 11:10:05;;;;;;;60.45;26.65;;;2.10;90.00;;;;;;5034815;28;20018;-77
2020/12/03 11:12:32;;;;;;;57.90;26.13;;;2.10;90.00;;;;;;5039448;28;20030;-77
2020/12/03 11:15:03;;;;;;;55.70;25.58;;;2.10;90.00;;;;;;5040224;28;20033;-76
2020/12/03 11:17:32;;;;;;;;;;;2.20;90.00;;;;;;5021109;28;20029;-77
2020/12/03 11:20:01;;;;;;;58.60;25.20;;;2.20;90.00;;;;;;5008753;28;19905;-76
2020/12/03 11:22:43;;;;;;;56.03;25.67;;;2.20;90.00;;;;;;5036449;28;20030;-76
2020/12/03 11:25:12;;;;;;;56.97;25.77;;;2.10;90.10;;;;;;5039440;28;20087;-76
2020/12/03 11:27:41;;;;;;;59.83;25.27;;;2.20;90.20;;;;;;5039344;28;20411;-75
2020/12/03 11:30:23;;;;;;;54.83;24.48;;;2.20;90.10;;;;;;5019844;28;20515;-77
2020/12/03 11:32:54;;;;;;;53.50;25.00;;;2.30;90.00;;;;;;5025623;28;20041;-76
2020/12/03 11:35:31;;;;;;;60.72;27.92;;;2.20;90.00;;;;;;5001839;28;20429;-76
2020/12/03 11:37:58;;;;;;;58.42;25.13;;;2.20;89.90;;;;;;5017413;28;20396;-76
2020/12/03 11:40:41;;;;;;;52.17;24.80;;;2.30;89.90;;;;;;5042779;28;20018;-77
2020/12/03 11:50:59;;;;;;;52.58;24.92;;;2.30;89.70;;;;;;5034154;28;20014;-78
2020/12/03 11:53:26;;;;;;;58.42;24.13;;;2.30;89.30;;;;;;4996821;28;20483;-76
2020/12/03 11:55:52;;;;;;;50.33;25.05;;;2.30;89.30;;;;;;5019347;28;20141;-76
2020/12/03 11:58:24;;;;;;;51.50;25.02;;;2.30;89.20;;;;;;5022957;28;20657;-75
2020/12/03 12:01:10;;;;;;;49.60;23.77;;;2.30;89.40;;;;;;5030751;28;20033;-76
2020/12/03 12:03:37;;;;;;;52.42;24.60;;;2.30;89.40;;;;;;5033701;28;20013;-76
2020/12/03 12:06:11;;;;;;;52.92;23.13;;;2.30;89.40;;;;;;5039153;28;20021;-76
2020/12/03 12:08:44;;;;;;;52.33;24.17;;;2.30;89.40;;;;;;5042431;28;20053;-75
2020/12/03 12:13:36;;;;;;;47.90;24.15;;;2.30;90.00;;;;;;5045640;28;20104;-77
2020/12/03 12:16:02;;;;;;;54.00;24.90;;;2.40;89.00;;;;;;5024442;28;20021;-79
2020/12/03 12:18:27;;;;;;;53.03;24.70;;;2.30;88.90;;;;;;5038716;28;20527;-76
2020/12/03 12:20:53;;;;;;;50.00;23.80;;;2.30;88.90;;;;;;5011374;28;20026;-77
2020/12/03 12:23:19;;;;;;;51.70;24.00;;;2.30;89.30;;;;;;5030687;28;20036;-77
2020/12/03 12:25:44;;;;;;;48.55;24.63;;;2.30;89.10;;;;;;5037571;28;20022;-77
2020/12/03 12:28:11;;;;;;;56.03;24.40;;;2.30;89.00;;;;;;5043365;28;20401;-77
2020/12/03 12:30:37;;;;;;;50.25;24.58;;;2.30;89.20;;;;;;5045204;28;20038;-76
2020/12/03 12:33:03;;;;;;;52.80;24.17;;;2.30;89.30;;;;;;5043488;28;20036;-76
2020/12/03 12:35:28;;;;;;;51.38;24.80;;;2.30;89.30;;;;;;5019473;28;20480;-75
2020/12/03 12:37:55;;;;;;;48.70;22.85;;;2.40;89.10;;;;;;5039134;28;20025;-78
2020/12/03 12:40:20;;;;;;;49.30;23.08;;;2.30;89.20;;;;;;5025898;28;20104;-78
2020/12/03 12:42:46;;;;;;;51.80;23.10;;;2.40;89.30;;;;;;5019838;28;20089;-78
2020/12/03 12:45:12;;;;;;;51.53;23.23;;;2.40;89.30;;;;;;5022076;28;20041;-76
2020/12/03 12:47:38;;;;;;;49.33;24.92;;;2.40;89.20;;;;;;5039657;28;20495;-77
2020/12/03 12:50:04;;;;;;;49.47;23.05;;;2.40;89.40;;;;;;5013783;28;20036;-77
2020/12/03 12:52:31;;;;;;;48.33;23.02;;;2.40;89.60;;;;;;5036826;28;20025;-77
2020/12/03 12:54:56;;;;;;;51.17;24.17;;;2.40;89.40;;;;;;5031962;28;20056;-76
2020/12/03 12:57:22;;;;;;;48.00;22.67;;;2.50;89.20;;;;;;5025385;28;20029;-77
2020/12/03 12:59:48;;;;;;;46.75;22.83;;;2.40;89.10;;;;;;5032882;28;20057;-76
2020/12/03 13:02:15;;;;;;;49.78;23.98;;;2.50;89.30;;;;;;5015729;28;20038;-77
2020/12/03 13:04:41;;;;;;;47.70;22.80;;;2.50;89.40;;;;;;5014119;28;20018;-77
2020/12/03 13:07:08;;;;;;;53.00;23.13;;;2.50;89.50;;;;;;5013004;28;20392;-77
2020/12/03 13:09:34;;;;;;;48.80;22.98;;;2.50;89.50;;;;;;5017318;28;20028;-78
2020/12/03 13:12:00;;;;;;;49.63;22.02;;;2.50;89.50;;;;;;5016208;28;20017;-77
2020/12/03 13:14:27;;;;;;;45.28;21.83;;;2.50;89.60;;;;;;5036734;28;20538;-76
2020/12/03 13:16:56;;;;;;;43.60;21.90;;;2.50;89.30;;;;;;5037278;28;20924;-76
2020/12/03 13:19:23;;;;;;;44.78;21.85;;;2.60;89.40;;;;;;5014101;28;20116;-77